Terminal Aerodrome Forecast
Issued by NWS North Platte, NE

Home | Current Version | Previous Version | Graphics & Text | Print | Product List | Glossary On
Versions: 1 2 3 4 5 6 7 8 9 10 11 12 13 14 15 16 17 18 19 20 21
000
FTUS43 KLBF 270100 AAA
TAFVTN
TAF AMD
KVTN 270106Z 2701/2724 36009KT P6SM OVC015
      TEMPO 2701/2703 1SM -SN BR OVC009
     FM270600 32006KT P6SM SCT015 BKN100
     FM271200 33008KT P6SM SCT100 BKN250
     FM271500 27009KT P6SM SKC=

USA.gov is the U.S. government's official web portal to all federal, state and local government web resources and services.